sensor_id;sensor_type;location;lat;lon;timestamp;P1;durP1;ratioP1;P2;durP2;ratioP2
63688;SDS011;54895;40.928;14.480;2023-03-03T00:01:16;14.13;;;8.88;;
63688;SDS011;54895;40.928;14.480;2023-03-03T00:03:43;20.10;;;9.48;;
63688;SDS011;54895;40.928;14.480;2023-03-03T00:06:10;18.20;;;10.18;;
63688;SDS011;54895;40.928;14.480;2023-03-03T00:08:39;16.67;;;10.40;;
63688;SDS011;54895;40.928;14.480;2023-03-03T00:11:06;16.73;;;10.88;;
63688;SDS011;54895;40.928;14.480;2023-03-03T00:13:43;19.75;;;10.32;;
63688;SDS011;54895;40.928;14.480;2023-03-03T00:16:23;17.20;;;10.43;;
63688;SDS011;54895;40.928;14.480;2023-03-03T00:18:50;16.63;;;10.02;;
63688;SDS011;54895;40.928;14.480;2023-03-03T00:21:25;19.33;;;10.55;;
63688;SDS011;54895;40.928;14.480;2023-03-03T00:24:01;16.58;;;8.70;;
63688;SDS011;54895;40.928;14.480;2023-03-03T00:26:38;21.92;;;10.95;;
63688;SDS011;54895;40.928;14.480;2023-03-03T00:32:12;17.45;;;10.55;;
63688;SDS011;54895;40.928;14.480;2023-03-03T00:35:18;19.88;;;9.30;;
63688;SDS011;54895;40.928;14.480;2023-03-03T00:37:56;19.25;;;8.32;;
63688;SDS011;54895;40.928;14.480;2023-03-03T00:40:26;17.58;;;10.52;;
63688;SDS011;54895;40.928;14.480;2023-03-03T00:43:00;20.70;;;10.75;;
63688;SDS011;54895;40.928;14.480;2023-03-03T00:48:31;15.23;;;8.20;;
63688;SDS011;54895;40.928;14.480;2023-03-03T00:53:51;15.50;;;9.00;;
63688;SDS011;54895;40.928;14.480;2023-03-03T00:56:18;14.13;;;8.18;;
63688;SDS011;54895;40.928;14.480;2023-03-03T01:01:29;14.02;;;7.03;;
63688;SDS011;54895;40.928;14.480;2023-03-03T01:03:56;12.85;;;6.93;;
63688;SDS011;54895;40.928;14.480;2023-03-03T01:06:23;11.98;;;7.10;;
63688;SDS011;54895;40.928;14.480;2023-03-03T01:08:50;11.00;;;6.72;;
63688;SDS011;54895;40.928;14.480;2023-03-03T01:11:20;12.93;;;7.22;;
63688;SDS011;54895;40.928;14.480;2023-03-03T01:13:50;13.15;;;7.43;;
63688;SDS011;54895;40.928;14.480;2023-03-03T01:16:18;15.95;;;8.02;;
63688;SDS011;54895;40.928;14.480;2023-03-03T01:18:45;13.15;;;7.22;;
63688;SDS011;54895;40.928;14.480;2023-03-03T01:21:12;11.95;;;7.43;;
63688;SDS011;54895;40.928;14.480;2023-03-03T01:23:39;11.30;;;7.25;;
63688;SDS011;54895;40.928;14.480;2023-03-03T01:26:06;12.10;;;6.68;;
63688;SDS011;54895;40.928;14.480;2023-03-03T01:28:33;10.68;;;6.82;;
63688;SDS011;54895;40.928;14.480;2023-03-03T01:31:01;12.45;;;6.53;;
63688;SDS011;54895;40.928;14.480;2023-03-03T01:33:30;8.60;;;6.15;;
63688;SDS011;54895;40.928;14.480;2023-03-03T01:35:58;12.35;;;6.00;;
63688;SDS011;54895;40.928;14.480;2023-03-03T01:38:24;12.82;;;5.97;;
63688;SDS011;54895;40.928;14.480;2023-03-03T01:40:55;9.95;;;5.55;;
63688;SDS011;54895;40.928;14.480;2023-03-03T01:43:30;10.55;;;5.28;;
63688;SDS011;54895;40.928;14.480;2023-03-03T01:48:37;8.65;;;5.32;;
63688;SDS011;54895;40.928;14.480;2023-03-03T01:51:19;10.80;;;5.25;;
63688;SDS011;54895;40.928;14.480;2023-03-03T01:54:00;9.15;;;5.18;;
63688;SDS011;54895;40.928;14.480;2023-03-03T01:56:28;10.10;;;5.32;;
63688;SDS011;54895;40.928;14.480;2023-03-03T02:01:44;11.27;;;4.80;;
63688;SDS011;54895;40.928;14.480;2023-03-03T02:04:13;8.82;;;4.70;;
63688;SDS011;54895;40.928;14.480;2023-03-03T02:06:40;9.57;;;4.43;;
63688;SDS011;54895;40.928;14.480;2023-03-03T02:12:03;6.03;;;3.63;;
63688;SDS011;54895;40.928;14.480;2023-03-03T02:14:33;10.55;;;4.45;;
63688;SDS011;54895;40.928;14.480;2023-03-03T02:16:59;9.55;;;5.20;;
63688;SDS011;54895;40.928;14.480;2023-03-03T02:19:32;9.02;;;4.60;;
63688;SDS011;54895;40.928;14.480;2023-03-03T02:22:09;7.57;;;4.32;;
63688;SDS011;54895;40.928;14.480;2023-03-03T02:24:40;7.05;;;3.85;;
63688;SDS011;54895;40.928;14.480;2023-03-03T02:27:11;6.88;;;3.45;;
63688;SDS011;54895;40.928;14.480;2023-03-03T02:29:40;5.88;;;3.45;;
63688;SDS011;54895;40.928;14.480;2023-03-03T02:32:06;9.02;;;3.38;;
63688;SDS011;54895;40.928;14.480;2023-03-03T02:34:46;4.53;;;2.60;;
63688;SDS011;54895;40.928;14.480;2023-03-03T02:37:13;5.03;;;3.15;;
63688;SDS011;54895;40.928;14.480;2023-03-03T02:39:40;5.35;;;3.33;;
63688;SDS011;54895;40.928;14.480;2023-03-03T02:44:43;8.35;;;4.38;;
63688;SDS011;54895;40.928;14.480;2023-03-03T02:47:10;9.52;;;4.55;;
63688;SDS011;54895;40.928;14.480;2023-03-03T02:49:36;11.95;;;4.38;;
63688;SDS011;54895;40.928;14.480;2023-03-03T02:52:04;6.72;;;4.40;;
63688;SDS011;54895;40.928;14.480;2023-03-03T02:54:33;10.30;;;5.53;;
63688;SDS011;54895;40.928;14.480;2023-03-03T02:57:02;9.40;;;5.13;;
63688;SDS011;54895;40.928;14.480;2023-03-03T02:59:29;10.20;;;4.97;;
63688;SDS011;54895;40.928;14.480;2023-03-03T03:01:59;7.20;;;4.95;;
63688;SDS011;54895;40.928;14.480;2023-03-03T03:04:27;9.10;;;4.72;;
63688;SDS011;54895;40.928;14.480;2023-03-03T03:06:54;9.38;;;4.85;;
63688;SDS011;54895;40.928;14.480;2023-03-03T03:09:23;6.57;;;5.00;;
63688;SDS011;54895;40.928;14.480;2023-03-03T03:11:51;8.32;;;5.15;;
63688;SDS011;54895;40.928;14.480;2023-03-03T03:14:21;9.15;;;4.80;;
63688;SDS011;54895;40.928;14.480;2023-03-03T03:16:49;8.90;;;4.88;;
63688;SDS011;54895;40.928;14.480;2023-03-03T03:19:15;8.18;;;4.40;;
63688;SDS011;54895;40.928;14.480;2023-03-03T03:21:43;10.90;;;5.10;;
63688;SDS011;54895;40.928;14.480;2023-03-03T03:24:10;7.07;;;4.40;;
63688;SDS011;54895;40.928;14.480;2023-03-03T03:26:40;7.68;;;4.43;;
63688;SDS011;54895;40.928;14.480;2023-03-03T03:29:06;9.10;;;4.65;;
63688;SDS011;54895;40.928;14.480;2023-03-03T03:31:33;11.77;;;5.35;;
63688;SDS011;54895;40.928;14.480;2023-03-03T03:34:02;7.88;;;4.63;;
63688;SDS011;54895;40.928;14.480;2023-03-03T03:36:29;9.38;;;4.95;;
63688;SDS011;54895;40.928;14.480;2023-03-03T03:38:55;7.22;;;3.78;;
63688;SDS011;54895;40.928;14.480;2023-03-03T03:41:21;5.72;;;3.85;;
63688;SDS011;54895;40.928;14.480;2023-03-03T03:43:48;6.50;;;3.42;;
63688;SDS011;54895;40.928;14.480;2023-03-03T03:46:15;5.07;;;3.10;;
63688;SDS011;54895;40.928;14.480;2023-03-03T03:48:42;5.00;;;2.88;;
63688;SDS011;54895;40.928;14.480;2023-03-03T03:51:11;5.82;;;2.80;;
63688;SDS011;54895;40.928;14.480;2023-03-03T03:53:39;5.80;;;3.08;;
63688;SDS011;54895;40.928;14.480;2023-03-03T03:56:05;5.82;;;3.17;;
63688;SDS011;54895;40.928;14.480;2023-03-03T04:01:52;5.68;;;2.85;;
63688;SDS011;54895;40.928;14.480;2023-03-03T04:04:20;6.78;;;2.88;;
63688;SDS011;54895;40.928;14.480;2023-03-03T04:06:48;3.92;;;2.60;;
63688;SDS011;54895;40.928;14.480;2023-03-03T04:09:15;5.30;;;2.50;;
63688;SDS011;54895;40.928;14.480;2023-03-03T04:11:43;4.25;;;2.78;;
63688;SDS011;54895;40.928;14.480;2023-03-03T04:14:11;4.88;;;3.03;;
63688;SDS011;54895;40.928;14.480;2023-03-03T04:16:38;5.00;;;2.50;;
63688;SDS011;54895;40.928;14.480;2023-03-03T04:19:05;6.05;;;2.83;;
63688;SDS011;54895;40.928;14.480;2023-03-03T04:21:34;5.28;;;3.00;;
63688;SDS011;54895;40.928;14.480;2023-03-03T04:24:02;10.07;;;3.30;;
63688;SDS011;54895;40.928;14.480;2023-03-03T04:26:29;3.35;;;2.88;;
63688;SDS011;54895;40.928;14.480;2023-03-03T04:28:58;3.00;;;1.98;;
63688;SDS011;54895;40.928;14.480;2023-03-03T04:31:25;8.48;;;3.53;;
63688;SDS011;54895;40.928;14.480;2023-03-03T04:33:53;5.72;;;2.53;;
63688;SDS011;54895;40.928;14.480;2023-03-03T04:36:21;4.13;;;2.30;;
63688;SDS011;54895;40.928;14.480;2023-03-03T04:38:48;4.00;;;2.20;;
63688;SDS011;54895;40.928;14.480;2023-03-03T04:41:15;4.65;;;2.50;;
63688;SDS011;54895;40.928;14.480;2023-03-03T04:43:42;7.15;;;2.47;;
63688;SDS011;54895;40.928;14.480;2023-03-03T04:46:11;5.53;;;2.90;;
63688;SDS011;54895;40.928;14.480;2023-03-03T04:48:38;8.73;;;3.17;;
63688;SDS011;54895;40.928;14.480;2023-03-03T04:51:05;4.70;;;2.88;;
63688;SDS011;54895;40.928;14.480;2023-03-03T04:53:33;7.10;;;2.63;;
63688;SDS011;54895;40.928;14.480;2023-03-03T04:56:01;4.88;;;2.40;;
63688;SDS011;54895;40.928;14.480;2023-03-03T05:01:44;6.53;;;2.50;;
63688;SDS011;54895;40.928;14.480;2023-03-03T05:04:13;4.80;;;2.70;;
63688;SDS011;54895;40.928;14.480;2023-03-03T05:06:39;5.35;;;2.60;;
63688;SDS011;54895;40.928;14.480;2023-03-03T05:09:07;6.03;;;2.70;;
63688;SDS011;54895;40.928;14.480;2023-03-03T05:11:34;9.52;;;3.03;;
63688;SDS011;54895;40.928;14.480;2023-03-03T05:14:01;6.85;;;3.03;;
63688;SDS011;54895;40.928;14.480;2023-03-03T05:16:28;5.47;;;3.38;;
63688;SDS011;54895;40.928;14.480;2023-03-03T05:18:55;5.13;;;3.13;;
63688;SDS011;54895;40.928;14.480;2023-03-03T05:21:22;4.63;;;3.33;;
63688;SDS011;54895;40.928;14.480;2023-03-03T05:23:48;7.43;;;3.30;;
63688;SDS011;54895;40.928;14.480;2023-03-03T05:26:15;7.28;;;3.63;;
63688;SDS011;54895;40.928;14.480;2023-03-03T05:28:42;7.72;;;3.72;;
63688;SDS011;54895;40.928;14.480;2023-03-03T05:31:08;6.63;;;3.58;;
63688;SDS011;54895;40.928;14.480;2023-03-03T05:33:35;9.05;;;3.60;;
63688;SDS011;54895;40.928;14.480;2023-03-03T05:36:01;7.28;;;3.40;;
63688;SDS011;54895;40.928;14.480;2023-03-03T05:38:28;6.32;;;3.08;;
63688;SDS011;54895;40.928;14.480;2023-03-03T05:40:54;8.13;;;3.58;;
63688;SDS011;54895;40.928;14.480;2023-03-03T05:43:21;6.50;;;2.92;;
63688;SDS011;54895;40.928;14.480;2023-03-03T05:45:53;7.07;;;3.40;;
63688;SDS011;54895;40.928;14.480;2023-03-03T05:48:23;5.85;;;3.00;;
63688;SDS011;54895;40.928;14.480;2023-03-03T05:50:49;6.40;;;3.83;;
63688;SDS011;54895;40.928;14.480;2023-03-03T05:53:16;5.47;;;3.80;;
63688;SDS011;54895;40.928;14.480;2023-03-03T05:55:43;8.23;;;4.10;;
63688;SDS011;54895;40.928;14.480;2023-03-03T06:01:47;10.30;;;4.10;;
63688;SDS011;54895;40.928;14.480;2023-03-03T06:04:14;7.47;;;4.38;;
63688;SDS011;54895;40.928;14.480;2023-03-03T06:06:40;10.15;;;4.78;;
63688;SDS011;54895;40.928;14.480;2023-03-03T06:09:07;9.25;;;3.58;;
63688;SDS011;54895;40.928;14.480;2023-03-03T06:11:34;6.93;;;2.92;;
63688;SDS011;54895;40.928;14.480;2023-03-03T06:14:02;5.47;;;3.40;;
63688;SDS011;54895;40.928;14.480;2023-03-03T06:16:29;7.60;;;3.40;;
63688;SDS011;54895;40.928;14.480;2023-03-03T06:18:56;8.63;;;3.33;;
63688;SDS011;54895;40.928;14.480;2023-03-03T06:21:22;7.68;;;3.50;;
63688;SDS011;54895;40.928;14.480;2023-03-03T06:23:49;6.95;;;3.22;;
63688;SDS011;54895;40.928;14.480;2023-03-03T06:26:16;6.72;;;3.00;;
63688;SDS011;54895;40.928;14.480;2023-03-03T06:28:43;6.93;;;2.92;;
63688;SDS011;54895;40.928;14.480;2023-03-03T06:31:10;7.72;;;2.88;;
63688;SDS011;54895;40.928;14.480;2023-03-03T06:33:37;4.93;;;3.15;;
63688;SDS011;54895;40.928;14.480;2023-03-03T06:36:04;7.45;;;4.20;;
63688;SDS011;54895;40.928;14.480;2023-03-03T06:38:31;6.93;;;4.50;;
63688;SDS011;54895;40.928;14.480;2023-03-03T06:40:57;7.97;;;4.18;;
63688;SDS011;54895;40.928;14.480;2023-03-03T06:43:27;10.60;;;4.93;;
63688;SDS011;54895;40.928;14.480;2023-03-03T06:45:53;8.45;;;5.70;;
63688;SDS011;54895;40.928;14.480;2023-03-03T06:48:20;9.10;;;5.43;;
63688;SDS011;54895;40.928;14.480;2023-03-03T06:50:47;8.25;;;4.72;;
63688;SDS011;54895;40.928;14.480;2023-03-03T06:53:14;10.05;;;5.53;;
63688;SDS011;54895;40.928;14.480;2023-03-03T06:55:43;14.82;;;5.00;;
63688;SDS011;54895;40.928;14.480;2023-03-03T07:02:03;14.30;;;5.60;;
63688;SDS011;54895;40.928;14.480;2023-03-03T07:04:39;9.95;;;4.63;;
63688;SDS011;54895;40.928;14.480;2023-03-03T07:07:16;10.23;;;5.05;;
63688;SDS011;54895;40.928;14.480;2023-03-03T07:09:44;10.10;;;4.60;;
63688;SDS011;54895;40.928;14.480;2023-03-03T07:12:14;9.30;;;4.50;;
63688;SDS011;54895;40.928;14.480;2023-03-03T07:14:45;8.88;;;5.13;;
63688;SDS011;54895;40.928;14.480;2023-03-03T07:17:14;8.63;;;4.70;;
63688;SDS011;54895;40.928;14.480;2023-03-03T07:19:45;9.27;;;4.53;;
63688;SDS011;54895;40.928;14.480;2023-03-03T07:22:16;8.07;;;4.03;;
63688;SDS011;54895;40.928;14.480;2023-03-03T07:24:50;11.63;;;3.72;;
63688;SDS011;54895;40.928;14.480;2023-03-03T07:29:50;6.93;;;3.40;;
63688;SDS011;54895;40.928;14.480;2023-03-03T07:32:32;10.98;;;3.10;;
63688;SDS011;54895;40.928;14.480;2023-03-03T07:35:51;7.63;;;2.60;;
63688;SDS011;54895;40.928;14.480;2023-03-03T07:38:01;9.40;;;3.25;;
63688;SDS011;54895;40.928;14.480;2023-03-03T07:40:34;7.28;;;4.35;;
63688;SDS011;54895;40.928;14.480;2023-03-03T07:46:40;9.43;;;4.07;;
63688;SDS011;54895;40.928;14.480;2023-03-03T07:49:29;11.05;;;4.40;;
63688;SDS011;54895;40.928;14.480;2023-03-03T07:52:00;5.90;;;3.30;;
63688;SDS011;54895;40.928;14.480;2023-03-03T07:54:42;6.93;;;3.67;;
63688;SDS011;54895;40.928;14.480;2023-03-03T07:57:24;14.38;;;3.97;;
63688;SDS011;54895;40.928;14.480;2023-03-03T07:59:57;9.30;;;3.50;;
63688;SDS011;54895;40.928;14.480;2023-03-03T08:04:54;5.88;;;2.90;;
63688;SDS011;54895;40.928;14.480;2023-03-03T08:07:21;7.18;;;3.00;;
63688;SDS011;54895;40.928;14.480;2023-03-03T08:09:49;10.10;;;3.50;;
63688;SDS011;54895;40.928;14.480;2023-03-03T08:15:21;7.90;;;2.92;;
63688;SDS011;54895;40.928;14.480;2023-03-03T08:17:51;6.93;;;3.10;;
63688;SDS011;54895;40.928;14.480;2023-03-03T08:23:08;7.57;;;3.13;;
63688;SDS011;54895;40.928;14.480;2023-03-03T08:25:36;4.80;;;2.75;;
63688;SDS011;54895;40.928;14.480;2023-03-03T08:28:03;6.25;;;2.78;;
63688;SDS011;54895;40.928;14.480;2023-03-03T08:30:29;6.65;;;2.40;;
63688;SDS011;54895;40.928;14.480;2023-03-03T08:32:57;10.60;;;3.00;;
63688;SDS011;54895;40.928;14.480;2023-03-03T08:35:26;7.85;;;2.88;;
63688;SDS011;54895;40.928;14.480;2023-03-03T08:37:53;8.20;;;2.90;;
63688;SDS011;54895;40.928;14.480;2023-03-03T08:40:20;6.78;;;2.63;;
63688;SDS011;54895;40.928;14.480;2023-03-03T08:42:47;7.15;;;2.88;;
63688;SDS011;54895;40.928;14.480;2023-03-03T08:45:13;9.43;;;3.55;;
63688;SDS011;54895;40.928;14.480;2023-03-03T08:47:40;4.82;;;2.78;;
63688;SDS011;54895;40.928;14.480;2023-03-03T08:50:08;5.85;;;2.60;;
63688;SDS011;54895;40.928;14.480;2023-03-03T08:52:35;7.53;;;2.60;;
63688;SDS011;54895;40.928;14.480;2023-03-03T08:55:02;10.70;;;2.95;;
63688;SDS011;54895;40.928;14.480;2023-03-03T08:57:29;7.18;;;3.33;;
63688;SDS011;54895;40.928;14.480;2023-03-03T08:59:56;6.03;;;2.78;;
63688;SDS011;54895;40.928;14.480;2023-03-03T09:02:38;7.67;;;2.83;;
63688;SDS011;54895;40.928;14.480;2023-03-03T09:05:05;8.68;;;3.13;;
63688;SDS011;54895;40.928;14.480;2023-03-03T09:07:33;10.55;;;3.55;;
63688;SDS011;54895;40.928;14.480;2023-03-03T09:10:01;8.27;;;3.25;;
63688;SDS011;54895;40.928;14.480;2023-03-03T09:14:59;8.60;;;3.13;;
63688;SDS011;54895;40.928;14.480;2023-03-03T09:17:37;5.15;;;2.28;;
63688;SDS011;54895;40.928;14.480;2023-03-03T09:20:27;8.02;;;2.90;;
63688;SDS011;54895;40.928;14.480;2023-03-03T09:25:51;4.85;;;1.90;;
63688;SDS011;54895;40.928;14.480;2023-03-03T09:28:25;6.82;;;1.60;;
63688;SDS011;54895;40.928;14.480;2023-03-03T09:30:59;4.68;;;2.13;;
63688;SDS011;54895;40.928;14.480;2023-03-03T09:33:43;4.75;;;2.08;;
63688;SDS011;54895;40.928;14.480;2023-03-03T09:36:17;5.43;;;1.75;;
63688;SDS011;54895;40.928;14.480;2023-03-03T09:38:46;5.30;;;1.50;;
63688;SDS011;54895;40.928;14.480;2023-03-03T09:47:02;4.53;;;1.40;;
63688;SDS011;54895;40.928;14.480;2023-03-03T09:49:54;8.65;;;1.45;;
63688;SDS011;54895;40.928;14.480;2023-03-03T09:52:36;3.70;;;1.52;;
63688;SDS011;54895;40.928;14.480;2023-03-03T09:55:16;5.75;;;1.30;;
63688;SDS011;54895;40.928;14.480;2023-03-03T10:11:03;4.80;;;1.23;;
63688;SDS011;54895;40.928;14.480;2023-03-03T10:21:28;4.70;;;1.10;;
63688;SDS011;54895;40.928;14.480;2023-03-03T10:26:56;4.28;;;1.00;;
63688;SDS011;54895;40.928;14.480;2023-03-03T10:51:41;8.02;;;1.58;;
63688;SDS011;54895;40.928;14.480;2023-03-03T10:57:29;3.17;;;1.40;;
63688;SDS011;54895;40.928;14.480;2023-03-03T11:00:21;5.57;;;1.75;;
63688;SDS011;54895;40.928;14.480;2023-03-03T11:06:00;3.65;;;1.77;;
63688;SDS011;54895;40.928;14.480;2023-03-03T11:11:16;5.72;;;2.30;;
63688;SDS011;54895;40.928;14.480;2023-03-03T11:16:55;5.30;;;2.20;;
63688;SDS011;54895;40.928;14.480;2023-03-03T11:25:51;4.25;;;1.60;;
63688;SDS011;54895;40.928;14.480;2023-03-03T11:33:51;4.72;;;1.83;;
63688;SDS011;54895;40.928;14.480;2023-03-03T11:36:39;5.20;;;1.77;;
63688;SDS011;54895;40.928;14.480;2023-03-03T11:39:13;5.60;;;1.75;;
63688;SDS011;54895;40.928;14.480;2023-03-03T11:44:37;4.38;;;1.92;;
63688;SDS011;54895;40.928;14.480;2023-03-03T11:49:41;4.38;;;1.92;;
63688;SDS011;54895;40.928;14.480;2023-03-03T11:52:20;7.63;;;2.10;;
63688;SDS011;54895;40.928;14.480;2023-03-03T11:55:01;3.55;;;1.75;;
63688;SDS011;54895;40.928;14.480;2023-03-03T12:02:57;5.82;;;1.60;;
63688;SDS011;54895;40.928;14.480;2023-03-03T12:05:55;6.88;;;1.95;;
63688;SDS011;54895;40.928;14.480;2023-03-03T12:08:43;8.43;;;1.85;;
63688;SDS011;54895;40.928;14.480;2023-03-03T12:11:29;5.95;;;2.10;;
63688;SDS011;54895;40.928;14.480;2023-03-03T12:14:06;9.63;;;3.83;;
63688;SDS011;54895;40.928;14.480;2023-03-03T12:16:56;6.03;;;2.70;;
63688;SDS011;54895;40.928;14.480;2023-03-03T12:22:04;6.43;;;2.13;;
63688;SDS011;54895;40.928;14.480;2023-03-03T12:24:55;5.47;;;1.88;;
63688;SDS011;54895;40.928;14.480;2023-03-03T12:42:04;5.10;;;1.80;;
63688;SDS011;54895;40.928;14.480;2023-03-03T12:44:54;4.38;;;1.98;;
63688;SDS011;54895;40.928;14.480;2023-03-03T12:47:28;5.00;;;1.60;;
63688;SDS011;54895;40.928;14.480;2023-03-03T12:56:00;5.53;;;1.80;;
63688;SDS011;54895;40.928;14.480;2023-03-03T13:05:03;8.55;;;2.20;;
63688;SDS011;54895;40.928;14.480;2023-03-03T13:07:37;3.30;;;1.50;;
63688;SDS011;54895;40.928;14.480;2023-03-03T13:15:22;4.55;;;1.95;;
63688;SDS011;54895;40.928;14.480;2023-03-03T13:21:00;5.00;;;2.00;;
63688;SDS011;54895;40.928;14.480;2023-03-03T13:26:23;4.00;;;2.08;;
63688;SDS011;54895;40.928;14.480;2023-03-03T13:31:35;11.38;;;2.22;;
63688;SDS011;54895;40.928;14.480;2023-03-03T13:36:57;3.53;;;1.85;;
63688;SDS011;54895;40.928;14.480;2023-03-03T13:39:37;4.70;;;2.17;;
63688;SDS011;54895;40.928;14.480;2023-03-03T13:44:44;4.38;;;1.80;;
63688;SDS011;54895;40.928;14.480;2023-03-03T13:47:23;2.63;;;1.33;;
63688;SDS011;54895;40.928;14.480;2023-03-03T13:50:20;4.80;;;1.90;;
63688;SDS011;54895;40.928;14.480;2023-03-03T13:55:55;4.20;;;1.58;;
63688;SDS011;54895;40.928;14.480;2023-03-03T14:05:50;3.95;;;1.75;;
63688;SDS011;54895;40.928;14.480;2023-03-03T14:19:35;5.57;;;2.25;;
63688;SDS011;54895;40.928;14.480;2023-03-03T14:22:14;7.10;;;3.38;;
63688;SDS011;54895;40.928;14.480;2023-03-03T14:25:02;8.43;;;2.38;;
63688;SDS011;54895;40.928;14.480;2023-03-03T14:33:25;6.80;;;2.38;;
63688;SDS011;54895;40.928;14.480;2023-03-03T14:41:18;8.60;;;2.17;;
63688;SDS011;54895;40.928;14.480;2023-03-03T14:43:45;6.32;;;2.20;;
63688;SDS011;54895;40.928;14.480;2023-03-03T14:49:15;5.38;;;1.85;;
63688;SDS011;54895;40.928;14.480;2023-03-03T14:52:01;8.32;;;2.75;;
63688;SDS011;54895;40.928;14.480;2023-03-03T14:54:36;5.00;;;2.10;;
63688;SDS011;54895;40.928;14.480;2023-03-03T14:57:15;6.80;;;2.20;;
63688;SDS011;54895;40.928;14.480;2023-03-03T15:03:13;7.22;;;2.67;;
63688;SDS011;54895;40.928;14.480;2023-03-03T15:05:50;8.70;;;2.75;;
63688;SDS011;54895;40.928;14.480;2023-03-03T15:08:23;8.05;;;2.63;;
63688;SDS011;54895;40.928;14.480;2023-03-03T15:13:42;5.50;;;2.10;;
63688;SDS011;54895;40.928;14.480;2023-03-03T15:16:16;6.15;;;2.53;;
63688;SDS011;54895;40.928;14.480;2023-03-03T15:21:41;6.87;;;2.80;;
63688;SDS011;54895;40.928;14.480;2023-03-03T15:27:43;11.68;;;4.13;;
63688;SDS011;54895;40.928;14.480;2023-03-03T15:30:38;7.47;;;3.08;;
63688;SDS011;54895;40.928;14.480;2023-03-03T15:33:34;4.80;;;2.60;;
63688;SDS011;54895;40.928;14.480;2023-03-03T15:36:22;5.78;;;2.65;;
63688;SDS011;54895;40.928;14.480;2023-03-03T15:42:04;4.47;;;2.50;;
63688;SDS011;54895;40.928;14.480;2023-03-03T15:50:23;6.18;;;2.60;;
63688;SDS011;54895;40.928;14.480;2023-03-03T15:53:03;10.20;;;3.60;;
63688;SDS011;54895;40.928;14.480;2023-03-03T16:03:00;8.95;;;4.35;;
63688;SDS011;54895;40.928;14.480;2023-03-03T16:05:38;5.03;;;3.33;;
63688;SDS011;54895;40.928;14.480;2023-03-03T16:08:15;8.77;;;4.95;;
63688;SDS011;54895;40.928;14.480;2023-03-03T16:16:34;6.78;;;3.15;;
63688;SDS011;54895;40.928;14.480;2023-03-03T16:21:53;7.35;;;3.25;;
63688;SDS011;54895;40.928;14.480;2023-03-03T16:35:42;3.78;;;2.10;;
63688;SDS011;54895;40.928;14.480;2023-03-03T16:38:19;4.43;;;1.50;;
63688;SDS011;54895;40.928;14.480;2023-03-03T16:41:01;4.53;;;1.63;;
63688;SDS011;54895;40.928;14.480;2023-03-03T16:46:00;1.60;;;0.82;;
63688;SDS011;54895;40.928;14.480;2023-03-03T16:48:57;2.03;;;1.10;;
63688;SDS011;54895;40.928;14.480;2023-03-03T16:51:45;0.95;;;0.80;;
63688;SDS011;54895;40.928;14.480;2023-03-03T16:54:15;1.98;;;0.93;;
63688;SDS011;54895;40.928;14.480;2023-03-03T16:57:02;1.48;;;0.55;;
63688;SDS011;54895;40.928;14.480;2023-03-03T17:08:06;4.20;;;0.85;;
63688;SDS011;54895;40.928;14.480;2023-03-03T17:22:24;0.77;;;0.40;;
63688;SDS011;54895;40.928;14.480;2023-03-03T17:25:04;1.52;;;0.90;;
63688;SDS011;54895;40.928;14.480;2023-03-03T17:35:46;4.47;;;1.33;;
63688;SDS011;54895;40.928;14.480;2023-03-03T17:40:57;2.67;;;1.25;;
63688;SDS011;54895;40.928;14.480;2023-03-03T17:46:01;1.38;;;1.02;;
63688;SDS011;54895;40.928;14.480;2023-03-03T18:09:08;1.20;;;0.77;;
63688;SDS011;54895;40.928;14.480;2023-03-03T18:17:24;3.90;;;1.60;;
63688;SDS011;54895;40.928;14.480;2023-03-03T18:20:11;1.10;;;0.98;;
63688;SDS011;54895;40.928;14.480;2023-03-03T18:22:45;1.88;;;1.48;;
63688;SDS011;54895;40.928;14.480;2023-03-03T18:25:18;2.85;;;1.42;;
63688;SDS011;54895;40.928;14.480;2023-03-03T18:30:30;2.25;;;1.60;;
63688;SDS011;54895;40.928;14.480;2023-03-03T18:33:16;3.35;;;2.03;;
63688;SDS011;54895;40.928;14.480;2023-03-03T18:38:53;3.78;;;2.25;;
63688;SDS011;54895;40.928;14.480;2023-03-03T18:41:27;3.97;;;2.40;;
63688;SDS011;54895;40.928;14.480;2023-03-03T18:43:56;5.38;;;2.35;;
63688;SDS011;54895;40.928;14.480;2023-03-03T18:48:50;4.20;;;2.20;;
63688;SDS011;54895;40.928;14.480;2023-03-03T18:56:44;3.22;;;2.33;;
63688;SDS011;54895;40.928;14.480;2023-03-03T19:03:04;6.43;;;4.90;;
63688;SDS011;54895;40.928;14.480;2023-03-03T19:05:52;6.10;;;4.90;;
63688;SDS011;54895;40.928;14.480;2023-03-03T19:10:59;6.00;;;4.03;;
63688;SDS011;54895;40.928;14.480;2023-03-03T19:16:07;2.75;;;1.50;;
63688;SDS011;54895;40.928;14.480;2023-03-03T19:21:34;1.75;;;1.10;;
63688;SDS011;54895;40.928;14.480;2023-03-03T19:37:29;1.30;;;1.02;;
63688;SDS011;54895;40.928;14.480;2023-03-03T19:45:54;1.00;;;0.80;;
63688;SDS011;54895;40.928;14.480;2023-03-03T19:48:39;1.13;;;0.82;;
63688;SDS011;54895;40.928;14.480;2023-03-03T19:54:41;0.60;;;0.60;;
63688;SDS011;54895;40.928;14.480;2023-03-03T20:15:11;1.65;;;1.10;;
63688;SDS011;54895;40.928;14.480;2023-03-03T20:20:48;1.08;;;0.90;;
63688;SDS011;54895;40.928;14.480;2023-03-03T20:26:26;1.55;;;1.05;;
63688;SDS011;54895;40.928;14.480;2023-03-03T20:37:12;1.48;;;1.10;;
63688;SDS011;54895;40.928;14.480;2023-03-03T20:44:54;3.92;;;1.40;;
63688;SDS011;54895;40.928;14.480;2023-03-03T20:47:42;2.13;;;1.35;;
63688;SDS011;54895;40.928;14.480;2023-03-03T20:55:33;1.55;;;0.90;;
63688;SDS011;54895;40.928;14.480;2023-03-03T20:58:33;1.25;;;0.95;;
63688;SDS011;54895;40.928;14.480;2023-03-03T21:03:54;2.50;;;1.13;;
63688;SDS011;54895;40.928;14.480;2023-03-03T21:06:43;1.40;;;1.20;;
63688;SDS011;54895;40.928;14.480;2023-03-03T21:09:23;0.50;;;0.50;;
63688;SDS011;54895;40.928;14.480;2023-03-03T21:11:59;1.10;;;0.80;;
63688;SDS011;54895;40.928;14.480;2023-03-03T21:14:46;1.15;;;0.80;;
63688;SDS011;54895;40.928;14.480;2023-03-03T21:17:29;0.65;;;0.65;;
63688;SDS011;54895;40.928;14.480;2023-03-03T21:22:59;0.50;;;0.50;;
63688;SDS011;54895;40.928;14.480;2023-03-03T21:30:59;0.88;;;0.63;;
63688;SDS011;54895;40.928;14.480;2023-03-03T21:38:49;1.10;;;0.82;;
63688;SDS011;54895;40.928;14.480;2023-03-03T21:41:18;1.50;;;0.90;;
63688;SDS011;54895;40.928;14.480;2023-03-03T21:43:46;2.40;;;1.15;;
63688;SDS011;54895;40.928;14.480;2023-03-03T21:46:18;1.33;;;1.00;;
63688;SDS011;54895;40.928;14.480;2023-03-03T21:48:46;1.02;;;0.90;;
63688;SDS011;54895;40.928;14.480;2023-03-03T21:51:12;1.65;;;1.08;;
63688;SDS011;54895;40.928;14.480;2023-03-03T21:53:48;1.27;;;0.68;;
63688;SDS011;54895;40.928;14.480;2023-03-03T21:56:14;1.15;;;0.80;;
63688;SDS011;54895;40.928;14.480;2023-03-03T21:58:40;0.50;;;0.50;;
63688;SDS011;54895;40.928;14.480;2023-03-03T22:03:52;0.30;;;0.30;;
63688;SDS011;54895;40.928;14.480;2023-03-03T22:06:19;0.60;;;0.60;;
63688;SDS011;54895;40.928;14.480;2023-03-03T22:08:45;1.23;;;0.60;;
63688;SDS011;54895;40.928;14.480;2023-03-03T22:11:12;0.63;;;0.50;;
63688;SDS011;54895;40.928;14.480;2023-03-03T22:13:38;0.75;;;0.70;;
63688;SDS011;54895;40.928;14.480;2023-03-03T22:16:06;0.52;;;0.50;;
63688;SDS011;54895;40.928;14.480;2023-03-03T22:18:33;0.60;;;0.50;;
63688;SDS011;54895;40.928;14.480;2023-03-03T22:20:59;1.40;;;1.05;;
63688;SDS011;54895;40.928;14.480;2023-03-03T22:23:26;2.00;;;1.13;;
63688;SDS011;54895;40.928;14.480;2023-03-03T22:25:52;2.00;;;0.70;;
63688;SDS011;54895;40.928;14.480;2023-03-03T22:28:19;0.82;;;0.82;;